createdAt,value
2019-05-16T00:00:58.926Z,1.80
2019-05-16T00:03:28.268Z,1.50
2019-05-16T00:05:58.386Z,1.30
2019-05-16T00:08:28.577Z,1.45
2019-05-16T00:10:58.686Z,1.62
2019-05-16T00:13:28.224Z,1.67
2019-05-16T00:15:58.805Z,1.40
2019-05-16T00:18:28.502Z,1.62
2019-05-16T00:20:58.515Z,1.90
2019-05-16T00:23:28.841Z,1.80
2019-05-16T00:25:58.694Z,1.50
2019-05-16T00:28:28.632Z,1.30
2019-05-16T00:30:59.193Z,1.72
2019-05-16T00:33:28.786Z,1.75
2019-05-16T00:36:03.429Z,1.75
2019-05-16T00:38:29.131Z,2.05
2019-05-16T00:40:59.060Z,1.65
2019-05-16T00:43:28.969Z,1.80
2019-05-16T00:45:59.137Z,1.65
2019-05-16T00:48:28.978Z,2.10
2019-05-16T00:50:58.560Z,2.00
2019-05-16T00:53:28.880Z,2.58
2019-05-16T00:55:59.419Z,2.15
2019-05-16T00:58:30.327Z,2.20
2019-05-16T01:00:59.590Z,2.15
2019-05-16T01:03:29.238Z,2.30
2019-05-16T01:05:58.490Z,2.20
2019-05-16T01:08:28.312Z,2.00
2019-05-16T01:10:58.628Z,2.02
2019-05-16T01:13:28.193Z,2.05
2019-05-16T01:15:58.024Z,2.30
2019-05-16T01:18:28.704Z,2.08
2019-05-16T01:20:58.733Z,2.08
2019-05-16T01:23:28.487Z,2.27
2019-05-16T01:25:58.789Z,2.75
2019-05-16T01:28:28.419Z,2.52
2019-05-16T01:30:58.169Z,2.60
2019-05-16T01:33:28.227Z,2.35
2019-05-16T01:35:58.556Z,1.75
2019-05-16T01:38:28.620Z,2.00
2019-05-16T01:40:58.409Z,2.10
2019-05-16T01:43:28.533Z,2.22
2019-05-16T01:45:58.106Z,2.10
2019-05-16T01:48:29.172Z,2.20
2019-05-16T01:50:58.671Z,1.80
2019-05-16T01:53:28.681Z,1.95
2019-05-16T01:55:58.299Z,2.15
2019-05-16T01:58:28.982Z,1.90
2019-05-16T02:01:11.588Z,2.08
2019-05-16T02:03:29.995Z,2.95
2019-05-16T02:05:59.265Z,2.55
2019-05-16T02:08:28.831Z,2.58
2019-05-16T02:10:58.477Z,2.35
2019-05-16T02:13:28.702Z,3.10
2019-05-16T02:15:59.261Z,2.15
2019-05-16T02:18:29.121Z,2.45
2019-05-16T02:21:01.290Z,2.05
2019-05-16T02:23:30.029Z,2.00
2019-05-16T02:25:59.291Z,2.87
2019-05-16T02:28:33.683Z,2.65
2019-05-16T02:31:01.226Z,2.45
2019-05-16T02:33:31.700Z,2.95
2019-05-16T02:36:02.009Z,2.52
2019-05-16T02:38:31.851Z,2.58
2019-05-16T02:41:03.225Z,2.30
2019-05-16T02:43:32.626Z,3.33
2019-05-16T02:46:01.959Z,2.90
2019-05-16T02:48:35.305Z,2.40
2019-05-16T02:51:02.261Z,2.70
2019-05-16T02:53:31.488Z,3.22
2019-05-16T02:56:01.614Z,2.67
2019-05-16T02:58:31.293Z,3.05
2019-05-16T03:01:02.186Z,2.50
2019-05-16T03:03:31.858Z,3.25
2019-05-16T03:06:02.225Z,2.75
2019-05-16T03:08:32.746Z,2.75
2019-05-16T03:11:02.042Z,2.70
2019-05-16T03:13:33.514Z,2.77
2019-05-16T03:16:03.413Z,3.05
2019-05-16T03:18:35.616Z,3.00
2019-05-16T03:21:07.294Z,2.60
2019-05-16T03:23:36.553Z,3.05
2019-05-16T03:26:05.820Z,3.35
2019-05-16T03:28:35.075Z,2.75
2019-05-16T03:31:05.923Z,3.17
2019-05-16T03:33:47.413Z,3.08
2019-05-16T03:36:06.389Z,2.62
2019-05-16T03:38:35.665Z,3.15
2019-05-16T03:41:04.984Z,3.30
2019-05-16T03:43:34.233Z,2.55
2019-05-16T03:46:03.508Z,2.80
2019-05-16T03:48:32.768Z,3.22
2019-05-16T03:51:02.036Z,2.90
2019-05-16T03:53:31.988Z,3.05
2019-05-16T03:56:02.007Z,2.60
2019-05-16T03:58:31.409Z,2.90
2019-05-16T04:01:02.303Z,3.02
2019-05-16T04:03:33.305Z,2.95
2019-05-16T04:06:02.754Z,3.87
2019-05-16T04:08:32.009Z,3.40
2019-05-16T04:11:01.703Z,2.80
2019-05-16T04:13:31.906Z,3.25
2019-05-16T04:16:01.758Z,3.20
2019-05-16T04:18:32.023Z,3.12
2019-05-16T04:21:01.519Z,3.62
2019-05-16T04:23:31.643Z,3.12
2019-05-16T04:26:01.299Z,3.35
2019-05-16T04:28:31.733Z,3.27
2019-05-16T04:31:02.195Z,3.50
2019-05-16T04:33:31.637Z,2.98
2019-05-16T04:36:01.511Z,3.55
2019-05-16T04:38:40.037Z,3.62
2019-05-16T04:41:01.928Z,3.25
2019-05-16T04:43:31.784Z,3.45
2019-05-16T04:46:01.650Z,3.92
2019-05-16T04:48:31.499Z,3.22
2019-05-16T04:51:01.620Z,2.72
2019-05-16T04:53:31.736Z,3.15
2019-05-16T04:56:02.008Z,3.70
2019-05-16T04:58:31.930Z,2.20
2019-05-16T05:01:01.950Z,3.60
2019-05-16T05:03:31.902Z,3.45
2019-05-16T05:06:01.957Z,3.50
2019-05-16T05:08:48.546Z,3.10
2019-05-16T05:11:02.704Z,2.83
2019-05-16T05:13:31.990Z,2.80
2019-05-16T05:16:01.585Z,2.58
2019-05-16T05:18:31.241Z,3.30
2019-05-16T05:21:01.237Z,3.33
2019-05-16T05:23:30.955Z,3.10
2019-05-16T05:26:00.585Z,3.47
2019-05-16T05:28:30.168Z,2.53
2019-05-16T05:30:59.881Z,2.40
2019-05-16T05:33:30.436Z,2.43
2019-05-16T05:36:01.087Z,2.70
2019-05-16T05:38:31.160Z,3.60
2019-05-16T05:41:00.576Z,3.40
2019-05-16T05:43:30.700Z,2.80
2019-05-16T05:46:00.667Z,3.37
2019-05-16T05:48:30.950Z,3.02
2019-05-16T05:51:00.635Z,2.80
2019-05-16T05:53:30.283Z,2.80
2019-05-16T05:56:00.482Z,3.40
2019-05-16T05:58:30.735Z,3.30
2019-05-16T06:01:00.914Z,3.43
2019-05-16T06:03:32.697Z,3.40
2019-05-16T06:06:01.776Z,3.33
2019-05-16T06:08:31.146Z,4.43
2019-05-16T06:11:00.876Z,4.30
2019-05-16T06:13:31.054Z,4.30
2019-05-16T06:16:00.916Z,3.97
2019-05-16T06:18:30.667Z,3.80
2019-05-16T06:21:00.719Z,3.40
2019-05-16T06:23:31.177Z,4.53
2019-05-16T06:26:01.000Z,3.60
2019-05-16T06:28:30.992Z,3.53
2019-05-16T06:31:01.846Z,4.50
2019-05-16T06:33:31.399Z,3.93
2019-05-16T06:36:01.168Z,4.10
2019-05-16T06:38:30.765Z,4.00
2019-05-16T06:41:00.668Z,4.50
2019-05-16T06:43:30.373Z,5.03
2019-05-16T06:46:00.546Z,4.77
2019-05-16T06:48:30.529Z,5.50
2019-05-16T06:51:02.875Z,3.90
2019-05-16T06:53:31.275Z,4.13
2019-05-16T06:56:00.617Z,4.53
2019-05-16T06:58:30.486Z,4.10
2019-05-16T07:01:03.358Z,4.73
2019-05-16T07:03:31.245Z,3.87
2019-05-16T07:06:01.168Z,5.50
2019-05-16T07:08:31.286Z,5.30
2019-05-16T07:11:00.694Z,6.50
2019-05-16T07:13:30.592Z,5.50
2019-05-16T07:16:00.706Z,5.00
2019-05-16T07:18:31.033Z,6.07
2019-05-16T07:21:00.973Z,5.60
2019-05-16T07:23:30.252Z,5.63
2019-05-16T07:26:00.825Z,6.33
2019-05-16T07:28:30.358Z,5.40
2019-05-16T07:31:02.904Z,4.83
2019-05-16T07:33:31.299Z,5.70
2019-05-16T07:36:00.696Z,5.83
2019-05-16T07:38:30.875Z,6.23
2019-05-16T07:41:00.424Z,5.87
2019-05-16T07:43:30.835Z,6.20
2019-05-16T07:46:00.822Z,5.63
2019-05-16T07:48:31.579Z,6.23
2019-05-16T07:51:01.110Z,5.67
2019-05-16T07:53:33.215Z,6.10
2019-05-16T07:58:26.725Z,5.87
2019-05-16T08:01:02.710Z,5.80
2019-05-16T08:03:27.008Z,5.50
2019-05-16T08:05:56.281Z,5.50
2019-05-16T08:08:25.555Z,6.90
2019-05-16T08:10:54.830Z,5.63
2019-05-16T08:13:24.103Z,5.97
2019-05-16T08:15:53.381Z,4.47
2019-05-16T08:18:22.646Z,6.13
2019-05-16T08:20:52.779Z,6.53
2019-05-16T08:23:22.925Z,6.20
2019-05-16T08:25:52.204Z,5.00
2019-05-16T08:28:22.089Z,5.80
2019-05-16T08:33:20.809Z,5.50
2019-05-16T08:33:22.757Z,5.43
2019-05-16T08:35:52.051Z,8.90
2019-05-16T08:38:22.059Z,8.70
2019-05-16T08:43:22.706Z,6.10
2019-05-16T08:45:52.153Z,6.00
2019-05-16T08:48:23.334Z,5.17
2019-05-16T08:50:54.779Z,5.80
2019-05-16T08:53:24.131Z,5.23
2019-05-16T08:55:53.737Z,4.87
2019-05-16T08:58:23.395Z,5.40
2019-05-16T09:00:56.090Z,5.60
2019-05-16T09:03:24.556Z,4.60
2019-05-16T09:05:53.967Z,6.53
2019-05-16T09:08:23.175Z,5.63
2019-05-16T09:10:21.220Z,7.27
2019-05-16T09:11:02.086Z,5.67
2019-05-16T09:13:23.463Z,6.30
2019-05-16T09:15:53.155Z,5.13
2019-05-16T09:18:22.420Z,5.37
2019-05-16T09:20:51.781Z,6.17
2019-05-16T09:23:21.054Z,4.80
2019-05-16T09:25:50.657Z,5.20
2019-05-16T09:28:20.262Z,5.13
2019-05-16T09:30:49.928Z,4.93
2019-05-16T09:33:19.480Z,4.20
2019-05-16T09:35:48.759Z,4.80
2019-05-16T09:38:25.309Z,5.30
2019-05-16T09:40:49.122Z,5.37
2019-05-16T09:43:18.711Z,5.47
2019-05-16T09:45:48.335Z,5.00
2019-05-16T09:48:19.107Z,5.00
2019-05-16T09:50:49.505Z,4.87
2019-05-16T09:53:19.104Z,4.30
2019-05-16T09:55:48.446Z,4.70
2019-05-16T09:58:19.045Z,4.70
2019-05-16T10:00:48.445Z,5.50
2019-05-16T10:03:22.325Z,4.63
2019-05-16T10:05:48.889Z,5.63
2019-05-16T10:08:18.494Z,4.43
2019-05-16T10:10:48.104Z,4.93
2019-05-16T10:13:18.444Z,4.13
2019-05-16T10:15:48.136Z,4.73
2019-05-16T10:18:17.758Z,4.47
2019-05-16T10:20:47.104Z,3.97
2019-05-16T10:23:18.161Z,5.40
2019-05-16T10:25:48.214Z,5.00
2019-05-16T10:28:20.102Z,4.50
2019-05-16T10:30:50.184Z,4.17
2019-05-16T10:33:19.675Z,4.63
2019-05-16T10:35:48.896Z,3.87
2019-05-16T10:38:18.501Z,4.73
2019-05-16T10:40:48.109Z,4.87
2019-05-16T10:43:17.709Z,4.60
2019-05-16T10:45:46.981Z,4.87
2019-05-16T10:48:17.573Z,5.63
2019-05-16T10:50:47.895Z,4.40
2019-05-16T10:53:39.841Z,3.60
2019-05-16T10:55:48.320Z,4.30
2019-05-16T10:58:32.983Z,3.57
2019-05-16T11:01:11.813Z,4.23
2019-05-16T11:03:20.236Z,2.83
2019-05-16T11:06:02.938Z,4.20
2019-05-16T11:08:21.169Z,3.23
2019-05-16T11:10:50.556Z,3.80
2019-05-16T11:13:20.553Z,4.07
2019-05-16T11:15:50.293Z,3.13
2019-05-16T11:18:20.413Z,3.37
2019-05-16T11:20:49.990Z,3.60
2019-05-16T11:23:23.399Z,4.70
2019-05-16T11:25:50.528Z,3.50
2019-05-16T11:28:20.091Z,3.83
2019-05-16T11:30:49.962Z,3.67
2019-05-16T11:33:19.334Z,3.80
2019-05-16T11:35:48.631Z,3.30
2019-05-16T11:38:18.207Z,2.80
2019-05-16T11:40:47.744Z,3.30
2019-05-16T11:43:21.078Z,4.00
2019-05-16T11:45:49.064Z,4.40
2019-05-16T11:48:18.663Z,4.20
2019-05-16T11:50:48.292Z,3.70
2019-05-16T11:53:17.899Z,3.07
2019-05-16T11:55:54.420Z,3.90
2019-05-16T11:58:18.846Z,3.70
2019-05-16T12:00:48.718Z,3.47
2019-05-16T12:03:18.087Z,3.53
2019-05-16T12:05:48.430Z,3.37
2019-05-16T12:08:18.197Z,3.40
2019-05-16T12:10:47.487Z,2.90
2019-05-16T12:13:27.504Z,3.57
2019-05-16T12:15:47.767Z,3.00
2019-05-16T12:18:17.532Z,3.40
2019-05-16T12:20:47.002Z,2.67
2019-05-16T12:23:17.171Z,3.00
2019-05-16T12:25:47.587Z,3.30
2019-05-16T12:28:17.170Z,3.70
2019-05-16T12:30:47.144Z,6.07
2019-05-16T12:33:18.725Z,3.30
2019-05-16T12:35:47.724Z,2.83
2019-05-16T12:38:17.407Z,3.17
2019-05-16T12:40:47.965Z,3.23
2019-05-16T12:43:17.995Z,3.00
2019-05-16T12:45:47.685Z,2.30
2019-05-16T12:48:20.257Z,2.80
2019-05-16T12:50:48.415Z,3.20
2019-05-16T12:53:17.678Z,3.50
2019-05-16T12:55:47.647Z,2.97
2019-05-16T12:58:25.071Z,2.70
2019-05-16T13:00:54.004Z,2.57
2019-05-16T13:03:19.323Z,2.67
2019-05-16T13:05:48.602Z,3.30
2019-05-16T13:08:18.208Z,2.70
2019-05-16T13:10:47.481Z,2.13
2019-05-16T13:13:17.689Z,2.30
2019-05-16T13:15:47.840Z,2.00
2019-05-16T13:18:17.458Z,2.57
2019-05-16T13:20:47.063Z,2.83
2019-05-16T13:23:18.189Z,2.50
2019-05-16T13:25:48.251Z,1.73
2019-05-16T13:28:17.830Z,2.87
2019-05-16T13:30:47.389Z,2.20
2019-05-16T13:33:17.745Z,1.90
2019-05-16T13:35:47.435Z,2.10
2019-05-16T13:38:17.537Z,2.87
2019-05-16T13:40:47.299Z,1.90
2019-05-16T13:43:17.532Z,2.30
2019-05-16T13:45:47.407Z,2.30
2019-05-16T13:48:17.405Z,1.60
2019-05-16T13:50:47.325Z,1.77
2019-05-16T13:53:16.971Z,2.10
2019-05-16T13:55:46.250Z,1.70
2019-05-16T13:58:17.834Z,2.23
2019-05-16T14:00:48.004Z,1.90
2019-05-16T14:03:18.061Z,2.03
2019-05-16T14:05:47.918Z,2.53
2019-05-16T14:08:17.287Z,1.90
2019-05-16T14:10:48.738Z,1.83
2019-05-16T14:13:17.650Z,2.60
2019-05-16T14:15:47.508Z,2.60
2019-05-16T14:18:17.647Z,2.33
2019-05-16T14:20:47.037Z,1.87
2019-05-16T14:23:17.577Z,3.37
2019-05-16T14:25:48.063Z,2.10
2019-05-16T14:28:17.929Z,1.70
2019-05-16T14:30:47.174Z,1.67
2019-05-16T14:33:17.176Z,2.33
2019-05-16T14:35:47.182Z,2.40
2019-05-16T14:38:17.682Z,2.47
2019-05-16T14:40:50.181Z,1.80
2019-05-16T14:43:18.258Z,2.40
2019-05-16T14:45:47.528Z,2.10
2019-05-16T14:48:18.441Z,2.50
2019-05-16T14:50:48.196Z,2.23
2019-05-16T14:53:18.078Z,2.80
2019-05-16T14:55:47.811Z,2.07
2019-05-16T14:58:17.266Z,2.53
2019-05-16T15:00:49.134Z,2.23
2019-05-16T15:03:18.185Z,2.83
2019-05-16T15:05:48.109Z,2.17
2019-05-16T15:08:18.309Z,2.07
2019-05-16T15:10:47.705Z,2.90
2019-05-16T15:13:17.597Z,2.27
2019-05-16T15:15:47.447Z,1.80
2019-05-16T15:18:17.805Z,2.10
2019-05-16T15:20:47.483Z,2.17
2019-05-16T15:23:17.583Z,2.00
2019-05-16T15:25:46.917Z,1.67
2019-05-16T15:28:17.248Z,2.00
2019-05-16T15:30:47.117Z,1.93
2019-05-16T15:33:19.564Z,1.83
2019-05-16T15:35:47.699Z,1.90
2019-05-16T15:38:16.987Z,2.30
2019-05-16T15:40:48.156Z,2.13
2019-05-16T15:43:18.639Z,1.60
2019-05-16T15:45:52.174Z,2.57
2019-05-16T15:48:19.145Z,2.00
2019-05-16T15:50:48.807Z,1.90
2019-05-16T15:53:18.423Z,1.60
2019-05-16T15:55:48.642Z,1.97
2019-05-16T15:58:18.413Z,1.90
2019-05-16T16:00:49.877Z,1.50
2019-05-16T16:03:19.723Z,1.60
2019-05-16T16:05:49.060Z,1.50
2019-05-16T16:08:18.662Z,1.93
2019-05-16T16:10:48.342Z,1.50
2019-05-16T16:13:19.895Z,1.50
2019-05-16T16:15:53.993Z,1.70
2019-05-16T16:18:21.867Z,1.50
2019-05-16T16:20:51.282Z,1.63
2019-05-16T16:23:30.603Z,1.50
2019-05-16T16:26:00.225Z,1.93
2019-05-16T16:28:29.511Z,1.70
2019-05-16T16:30:59.127Z,1.77
2019-05-16T16:33:30.060Z,1.40
2019-05-16T16:35:59.673Z,1.60
2019-05-16T16:38:29.282Z,1.63
2019-05-16T16:40:58.550Z,1.30
2019-05-16T16:43:27.820Z,1.70
2019-05-16T16:46:06.139Z,1.80
2019-05-16T16:48:28.106Z,1.80
2019-05-16T16:50:57.727Z,1.60
2019-05-16T16:53:27.334Z,1.50
2019-05-16T16:55:57.088Z,2.00
2019-05-16T16:58:26.826Z,1.87
2019-05-16T17:00:56.130Z,1.60
2019-05-16T17:03:27.249Z,2.07
2019-05-16T17:05:57.083Z,1.93
2019-05-16T17:08:27.217Z,1.67
2019-05-16T17:10:57.509Z,1.70
2019-05-16T17:13:27.584Z,1.70
2019-05-16T17:15:57.098Z,2.27
2019-05-16T17:18:27.559Z,1.70
2019-05-16T17:20:57.223Z,1.90
2019-05-16T17:23:26.612Z,1.67
2019-05-16T17:25:56.618Z,1.90
2019-05-16T17:28:26.189Z,2.33
2019-05-16T17:30:56.630Z,2.00
2019-05-16T17:33:28.525Z,2.13
2019-05-16T17:35:57.127Z,2.07
2019-05-16T17:38:26.851Z,1.77
2019-05-16T17:40:56.981Z,2.10
2019-05-16T17:43:26.996Z,2.03
2019-05-16T17:45:57.553Z,2.40
2019-05-16T17:48:29.819Z,1.80
2019-05-16T17:50:58.550Z,1.63
2019-05-16T17:53:28.159Z,2.13
2019-05-16T17:55:57.772Z,2.03
2019-05-16T17:58:27.218Z,1.80
2019-05-16T18:01:00.058Z,1.87
2019-05-16T18:03:27.822Z,1.50
2019-05-16T18:05:57.432Z,2.00
2019-05-16T18:08:26.711Z,1.87
2019-05-16T18:10:56.621Z,1.63
2019-05-16T18:13:26.006Z,1.60
2019-05-16T18:15:56.792Z,1.50
2019-05-16T18:18:26.892Z,1.57
2019-05-16T18:21:01.591Z,1.70
2019-05-16T18:23:27.650Z,1.93
2019-05-16T18:25:57.655Z,1.90
2019-05-16T18:28:27.023Z,1.40
2019-05-16T18:30:56.990Z,1.60
2019-05-16T18:33:27.538Z,1.80
2019-05-16T18:35:57.996Z,1.90
2019-05-16T18:38:28.453Z,2.50
2019-05-16T18:40:58.076Z,2.37
2019-05-16T18:43:27.590Z,1.33
2019-05-16T18:45:57.191Z,2.00
2019-05-16T18:48:27.431Z,1.60
2019-05-16T18:50:58.123Z,1.87
2019-05-16T18:53:27.957Z,1.50
2019-05-16T18:55:57.774Z,1.80
2019-05-16T18:58:27.391Z,1.80
2019-05-16T19:00:57.089Z,1.83
2019-05-16T19:03:27.153Z,2.00
2019-05-16T19:05:57.264Z,2.30
2019-05-16T19:08:27.242Z,2.60
2019-05-16T19:10:59.841Z,2.43
2019-05-16T19:13:27.971Z,3.23
2019-05-16T19:15:57.351Z,2.80
2019-05-16T19:18:26.593Z,3.00
2019-05-16T19:20:57.021Z,2.67
2019-05-16T19:23:26.985Z,3.03
2019-05-16T19:25:56.911Z,3.07
2019-05-16T19:28:28.543Z,2.73
2019-05-16T19:30:57.488Z,2.50
2019-05-16T19:33:26.747Z,2.60
2019-05-16T19:35:56.653Z,2.80
2019-05-16T19:38:29.206Z,2.60
2019-05-16T19:40:57.640Z,3.10
2019-05-16T19:43:27.409Z,2.73
2019-05-16T19:45:57.356Z,3.10
2019-05-16T19:48:27.007Z,2.57
2019-05-16T19:50:57.031Z,2.40
2019-05-16T19:53:27.314Z,2.83
2019-05-16T19:55:57.046Z,3.07
2019-05-16T19:58:26.831Z,3.20
2019-05-16T20:00:57.189Z,3.10
2019-05-16T20:03:27.212Z,2.77
2019-05-16T20:05:57.151Z,3.83
2019-05-16T20:08:27.044Z,3.10
2019-05-16T20:10:56.520Z,3.60
2019-05-16T20:13:27.469Z,2.63
2019-05-16T20:15:56.828Z,2.90
2019-05-16T20:18:27.426Z,2.93
2019-05-16T20:20:57.044Z,2.97
2019-05-16T20:23:27.626Z,3.17
2019-05-16T20:25:57.307Z,4.17
2019-05-16T20:28:26.875Z,3.50
2019-05-16T20:30:57.108Z,3.90
2019-05-16T20:33:27.642Z,4.33
2019-05-16T20:35:57.747Z,3.40
2019-05-16T20:38:27.047Z,4.00
2019-05-16T20:40:59.772Z,3.80
2019-05-16T20:43:27.572Z,4.13
2019-05-16T20:45:58.831Z,4.20
2019-05-16T20:48:28.102Z,4.00
2019-05-16T20:50:57.380Z,4.70
2019-05-16T20:53:27.263Z,4.87
2019-05-16T20:55:57.445Z,4.87
2019-05-16T20:58:27.084Z,5.13
2019-05-16T21:01:01.298Z,5.00
2019-05-16T21:03:27.701Z,5.20
2019-05-16T21:05:58.205Z,4.87
2019-05-16T21:08:28.078Z,4.33
2019-05-16T21:10:57.361Z,4.50
2019-05-16T21:13:26.708Z,4.80
2019-05-16T21:15:57.670Z,4.93
2019-05-16T21:18:27.321Z,4.80
2019-05-16T21:20:57.485Z,4.67
2019-05-16T21:23:27.552Z,4.67
2019-05-16T21:25:57.224Z,5.60
2019-05-16T21:28:26.785Z,5.30
2019-05-16T21:30:56.937Z,4.57
2019-05-16T21:33:27.232Z,4.53
2019-05-16T21:35:57.146Z,4.90
2019-05-16T21:38:27.240Z,5.03
2019-05-16T21:40:58.456Z,5.13
2019-05-16T21:43:28.049Z,6.00
2019-05-16T21:45:57.613Z,5.77
2019-05-16T21:48:27.860Z,6.80
2019-05-16T21:50:57.176Z,6.27
2019-05-16T21:53:27.208Z,5.87
2019-05-16T21:55:57.787Z,5.73
2019-05-16T21:58:29.429Z,6.40
2019-05-16T22:00:59.716Z,6.60
2019-05-16T22:03:29.375Z,6.37
2019-05-16T22:05:58.726Z,6.60
2019-05-16T22:08:28.289Z,7.07
2019-05-16T22:10:57.637Z,6.70
2019-05-16T22:13:26.990Z,7.03
2019-05-16T22:15:56.884Z,8.03
2019-05-16T22:18:26.613Z,7.60
2019-05-16T22:20:57.011Z,7.40
2019-05-16T22:23:26.770Z,7.87
2019-05-16T22:25:57.081Z,8.03
2019-05-16T22:28:28.397Z,8.00
2019-05-16T22:30:58.582Z,7.87
2019-05-16T22:33:28.212Z,7.93
2019-05-16T22:35:57.788Z,8.37
2019-05-16T22:38:27.036Z,7.90
2019-05-16T22:40:56.556Z,8.63
2019-05-16T22:43:26.670Z,8.40
2019-05-16T22:45:57.405Z,9.30
2019-05-16T22:48:27.125Z,8.27
2019-05-16T22:50:56.738Z,8.00
2019-05-16T22:53:27.222Z,9.23
2019-05-16T22:55:56.869Z,8.90
2019-05-16T22:58:27.037Z,8.37
2019-05-16T23:00:57.245Z,8.57
2019-05-16T23:03:26.930Z,9.90
2019-05-16T23:05:56.640Z,10.70
2019-05-16T23:08:27.254Z,9.90
2019-05-16T23:10:56.989Z,9.70
2019-05-16T23:13:26.701Z,9.17
2019-05-16T23:15:57.149Z,8.90
2019-05-16T23:18:26.866Z,8.90
2019-05-16T23:20:57.049Z,8.90
2019-05-16T23:23:26.642Z,8.67
2019-05-16T23:25:56.986Z,10.10
2019-05-16T23:28:27.339Z,10.70
2019-05-16T23:30:57.699Z,9.60
2019-05-16T23:33:27.280Z,9.30
2019-05-16T23:35:57.511Z,10.00
2019-05-16T23:38:27.625Z,9.30
2019-05-16T23:40:57.300Z,9.17
2019-05-16T23:43:26.728Z,10.33
2019-05-16T23:45:56.455Z,10.40
2019-05-16T23:48:26.108Z,9.33
2019-05-16T23:50:56.970Z,11.23
2019-05-16T23:53:26.452Z,10.17
2019-05-16T23:55:56.723Z,11.47
2019-05-16T23:58:26.086Z,10.53
